sensor_id;sensor_type;location;lat;lon;timestamp;P1;durP1;ratioP1;P2;durP2;ratioP2
9657;SDS011;4867;48.112;11.622;2023-04-25T00:00:31;3.03;;;2.70;;
9657;SDS011;4867;48.112;11.622;2023-04-25T00:02:58;2.90;;;2.50;;
9657;SDS011;4867;48.112;11.622;2023-04-25T00:05:28;3.27;;;2.47;;
9657;SDS011;4867;48.112;11.622;2023-04-25T00:07:56;3.10;;;2.50;;
9657;SDS011;4867;48.112;11.622;2023-04-25T00:10:24;3.67;;;2.37;;
9657;SDS011;4867;48.112;11.622;2023-04-25T00:12:51;3.80;;;2.70;;
9657;SDS011;4867;48.112;11.622;2023-04-25T00:15:19;3.30;;;2.33;;
9657;SDS011;4867;48.112;11.622;2023-04-25T00:17:47;2.93;;;2.47;;
9657;SDS011;4867;48.112;11.622;2023-04-25T00:20:14;2.73;;;2.20;;
9657;SDS011;4867;48.112;11.622;2023-04-25T00:22:42;3.90;;;2.30;;
9657;SDS011;4867;48.112;11.622;2023-04-25T00:25:09;3.77;;;2.57;;
9657;SDS011;4867;48.112;11.622;2023-04-25T00:27:36;2.70;;;2.50;;
9657;SDS011;4867;48.112;11.622;2023-04-25T00:30:05;3.20;;;2.40;;
9657;SDS011;4867;48.112;11.622;2023-04-25T00:32:33;2.90;;;2.60;;
9657;SDS011;4867;48.112;11.622;2023-04-25T00:35:01;3.03;;;2.40;;
9657;SDS011;4867;48.112;11.622;2023-04-25T00:37:28;2.77;;;2.10;;
9657;SDS011;4867;48.112;11.622;2023-04-25T00:39:57;2.97;;;2.30;;
9657;SDS011;4867;48.112;11.622;2023-04-25T00:42:24;3.23;;;2.40;;
9657;SDS011;4867;48.112;11.622;2023-04-25T00:44:52;4.10;;;2.60;;
9657;SDS011;4867;48.112;11.622;2023-04-25T00:47:20;3.03;;;2.73;;
9657;SDS011;4867;48.112;11.622;2023-04-25T00:49:47;3.13;;;2.30;;
9657;SDS011;4867;48.112;11.622;2023-04-25T00:52:15;2.67;;;2.43;;
9657;SDS011;4867;48.112;11.622;2023-04-25T00:54:42;2.50;;;2.27;;
9657;SDS011;4867;48.112;11.622;2023-04-25T00:57:10;4.87;;;2.77;;
9657;SDS011;4867;48.112;11.622;2023-04-25T00:59:37;2.60;;;2.27;;
9657;SDS011;4867;48.112;11.622;2023-04-25T01:02:05;3.67;;;2.40;;
9657;SDS011;4867;48.112;11.622;2023-04-25T01:04:34;3.67;;;2.40;;
9657;SDS011;4867;48.112;11.622;2023-04-25T01:07:01;2.70;;;2.30;;
9657;SDS011;4867;48.112;11.622;2023-04-25T01:09:29;2.63;;;2.43;;
9657;SDS011;4867;48.112;11.622;2023-04-25T01:11:58;3.43;;;2.67;;
9657;SDS011;4867;48.112;11.622;2023-04-25T01:14:26;5.73;;;2.80;;
9657;SDS011;4867;48.112;11.622;2023-04-25T01:16:54;2.60;;;2.40;;
9657;SDS011;4867;48.112;11.622;2023-04-25T01:19:21;2.50;;;2.30;;
9657;SDS011;4867;48.112;11.622;2023-04-25T01:21:50;2.50;;;2.30;;
9657;SDS011;4867;48.112;11.622;2023-04-25T01:24:18;6.43;;;2.60;;
9657;SDS011;4867;48.112;11.622;2023-04-25T01:26:46;3.63;;;2.43;;
9657;SDS011;4867;48.112;11.622;2023-04-25T01:29:20;2.83;;;2.50;;
9657;SDS011;4867;48.112;11.622;2023-04-25T01:31:47;3.60;;;2.60;;
9657;SDS011;4867;48.112;11.622;2023-04-25T01:34:15;4.20;;;2.57;;
9657;SDS011;4867;48.112;11.622;2023-04-25T01:36:42;2.40;;;2.20;;
9657;SDS011;4867;48.112;11.622;2023-04-25T01:39:10;4.43;;;2.60;;
9657;SDS011;4867;48.112;11.622;2023-04-25T01:41:37;4.07;;;2.63;;
9657;SDS011;4867;48.112;11.622;2023-04-25T01:44:05;3.00;;;2.70;;
9657;SDS011;4867;48.112;11.622;2023-04-25T01:46:33;3.30;;;2.40;;
9657;SDS011;4867;48.112;11.622;2023-04-25T01:49:01;4.20;;;2.40;;
9657;SDS011;4867;48.112;11.622;2023-04-25T01:51:30;4.33;;;2.60;;
9657;SDS011;4867;48.112;11.622;2023-04-25T01:53:58;3.20;;;2.50;;
9657;SDS011;4867;48.112;11.622;2023-04-25T01:56:31;2.60;;;2.40;;
9657;SDS011;4867;48.112;11.622;2023-04-25T01:59:00;3.80;;;2.27;;
9657;SDS011;4867;48.112;11.622;2023-04-25T02:01:45;3.03;;;2.73;;
9657;SDS011;4867;48.112;11.622;2023-04-25T02:04:22;3.10;;;2.80;;
9657;SDS011;4867;48.112;11.622;2023-04-25T02:06:50;2.70;;;2.50;;
9657;SDS011;4867;48.112;11.622;2023-04-25T02:09:18;3.47;;;2.60;;
9657;SDS011;4867;48.112;11.622;2023-04-25T02:11:51;3.20;;;2.90;;
9657;SDS011;4867;48.112;11.622;2023-04-25T02:14:21;3.40;;;2.67;;
9657;SDS011;4867;48.112;11.622;2023-04-25T02:16:56;3.97;;;2.60;;
9657;SDS011;4867;48.112;11.622;2023-04-25T02:19:24;3.80;;;2.33;;
9657;SDS011;4867;48.112;11.622;2023-04-25T02:21:51;3.47;;;2.70;;
9657;SDS011;4867;48.112;11.622;2023-04-25T02:24:19;4.83;;;2.70;;
9657;SDS011;4867;48.112;11.622;2023-04-25T02:26:46;3.40;;;2.30;;
9657;SDS011;4867;48.112;11.622;2023-04-25T02:29:13;3.13;;;2.60;;
9657;SDS011;4867;48.112;11.622;2023-04-25T02:31:42;3.53;;;2.80;;
9657;SDS011;4867;48.112;11.622;2023-04-25T02:34:09;2.60;;;2.40;;
9657;SDS011;4867;48.112;11.622;2023-04-25T02:36:38;3.90;;;2.60;;
9657;SDS011;4867;48.112;11.622;2023-04-25T02:39:05;3.50;;;2.83;;
9657;SDS011;4867;48.112;11.622;2023-04-25T02:41:32;3.03;;;2.80;;
9657;SDS011;4867;48.112;11.622;2023-04-25T02:43:59;3.23;;;2.73;;
9657;SDS011;4867;48.112;11.622;2023-04-25T02:46:26;3.37;;;2.80;;
9657;SDS011;4867;48.112;11.622;2023-04-25T02:49:05;3.10;;;2.80;;
9657;SDS011;4867;48.112;11.622;2023-04-25T02:51:34;4.20;;;2.87;;
9657;SDS011;4867;48.112;11.622;2023-04-25T02:54:01;2.47;;;2.23;;
9657;SDS011;4867;48.112;11.622;2023-04-25T02:56:31;2.97;;;2.50;;
9657;SDS011;4867;48.112;11.622;2023-04-25T02:59:00;3.07;;;2.60;;
9657;SDS011;4867;48.112;11.622;2023-04-25T03:01:29;2.77;;;2.57;;
9657;SDS011;4867;48.112;11.622;2023-04-25T03:03:56;4.13;;;2.50;;
9657;SDS011;4867;48.112;11.622;2023-04-25T03:06:24;5.10;;;2.83;;
9657;SDS011;4867;48.112;11.622;2023-04-25T03:08:52;3.57;;;2.50;;
9657;SDS011;4867;48.112;11.622;2023-04-25T03:11:19;3.60;;;2.40;;
9657;SDS011;4867;48.112;11.622;2023-04-25T03:13:47;2.77;;;2.33;;
9657;SDS011;4867;48.112;11.622;2023-04-25T03:16:15;5.27;;;2.70;;
9657;SDS011;4867;48.112;11.622;2023-04-25T03:18:42;3.17;;;2.40;;
9657;SDS011;4867;48.112;11.622;2023-04-25T03:21:10;4.77;;;2.97;;
9657;SDS011;4867;48.112;11.622;2023-04-25T03:23:37;4.20;;;3.00;;
9657;SDS011;4867;48.112;11.622;2023-04-25T03:26:06;4.20;;;2.77;;
9657;SDS011;4867;48.112;11.622;2023-04-25T03:28:34;4.43;;;2.80;;
9657;SDS011;4867;48.112;11.622;2023-04-25T03:31:01;3.87;;;2.90;;
9657;SDS011;4867;48.112;11.622;2023-04-25T03:33:29;4.73;;;2.80;;
9657;SDS011;4867;48.112;11.622;2023-04-25T03:35:57;3.23;;;2.40;;
9657;SDS011;4867;48.112;11.622;2023-04-25T03:38:24;3.27;;;2.33;;
9657;SDS011;4867;48.112;11.622;2023-04-25T03:40:52;2.97;;;2.40;;
9657;SDS011;4867;48.112;11.622;2023-04-25T03:43:24;5.73;;;2.70;;
9657;SDS011;4867;48.112;11.622;2023-04-25T03:45:57;5.57;;;2.63;;
9657;SDS011;4867;48.112;11.622;2023-04-25T03:48:25;4.37;;;2.60;;
9657;SDS011;4867;48.112;11.622;2023-04-25T03:50:54;3.60;;;2.37;;
9657;SDS011;4867;48.112;11.622;2023-04-25T03:53:21;3.10;;;2.37;;
9657;SDS011;4867;48.112;11.622;2023-04-25T03:56:24;3.23;;;2.40;;
9657;SDS011;4867;48.112;11.622;2023-04-25T03:58:59;2.93;;;2.60;;
9657;SDS011;4867;48.112;11.622;2023-04-25T04:01:28;3.53;;;2.30;;
9657;SDS011;4867;48.112;11.622;2023-04-25T04:03:57;4.20;;;2.40;;
9657;SDS011;4867;48.112;11.622;2023-04-25T04:06:25;3.70;;;2.57;;
9657;SDS011;4867;48.112;11.622;2023-04-25T04:09:01;4.90;;;2.50;;
9657;SDS011;4867;48.112;11.622;2023-04-25T04:11:32;4.73;;;2.50;;
9657;SDS011;4867;48.112;11.622;2023-04-25T04:13:59;4.37;;;2.40;;
9657;SDS011;4867;48.112;11.622;2023-04-25T04:16:26;3.97;;;2.40;;
9657;SDS011;4867;48.112;11.622;2023-04-25T04:18:54;3.53;;;2.53;;
9657;SDS011;4867;48.112;11.622;2023-04-25T04:21:21;4.37;;;2.43;;
9657;SDS011;4867;48.112;11.622;2023-04-25T04:23:49;2.30;;;2.10;;
9657;SDS011;4867;48.112;11.622;2023-04-25T04:26:17;3.03;;;2.40;;
9657;SDS011;4867;48.112;11.622;2023-04-25T04:28:53;3.63;;;2.40;;
9657;SDS011;4867;48.112;11.622;2023-04-25T04:31:37;3.00;;;2.20;;
9657;SDS011;4867;48.112;11.622;2023-04-25T04:34:05;2.50;;;2.23;;
9657;SDS011;4867;48.112;11.622;2023-04-25T04:36:34;2.33;;;2.13;;
9657;SDS011;4867;48.112;11.622;2023-04-25T04:39:01;2.53;;;2.30;;
9657;SDS011;4867;48.112;11.622;2023-04-25T04:41:41;4.30;;;2.40;;
9657;SDS011;4867;48.112;11.622;2023-04-25T04:44:28;3.37;;;2.23;;
9657;SDS011;4867;48.112;11.622;2023-04-25T04:47:13;3.97;;;2.40;;
9657;SDS011;4867;48.112;11.622;2023-04-25T04:50:00;3.73;;;2.60;;
9657;SDS011;4867;48.112;11.622;2023-04-25T04:52:57;2.77;;;2.40;;
9657;SDS011;4867;48.112;11.622;2023-04-25T04:55:37;3.00;;;2.50;;
9657;SDS011;4867;48.112;11.622;2023-04-25T04:58:22;2.77;;;2.10;;
9657;SDS011;4867;48.112;11.622;2023-04-25T05:01:19;3.53;;;2.20;;
9657;SDS011;4867;48.112;11.622;2023-04-25T05:04:00;2.43;;;2.23;;
9657;SDS011;4867;48.112;11.622;2023-04-25T05:06:46;2.70;;;2.27;;
9657;SDS011;4867;48.112;11.622;2023-04-25T05:09:37;2.73;;;2.20;;
9657;SDS011;4867;48.112;11.622;2023-04-25T05:12:12;2.40;;;2.20;;
9657;SDS011;4867;48.112;11.622;2023-04-25T05:14:58;3.13;;;2.20;;
9657;SDS011;4867;48.112;11.622;2023-04-25T05:17:50;4.40;;;2.33;;
9657;SDS011;4867;48.112;11.622;2023-04-25T05:20:49;4.77;;;2.63;;
9657;SDS011;4867;48.112;11.622;2023-04-25T05:23:55;5.07;;;2.57;;
9657;SDS011;4867;48.112;11.622;2023-04-25T05:26:43;4.80;;;2.77;;
9657;SDS011;4867;48.112;11.622;2023-04-25T05:29:22;4.27;;;2.83;;
9657;SDS011;4867;48.112;11.622;2023-04-25T05:32:12;2.90;;;2.57;;
9657;SDS011;4867;48.112;11.622;2023-04-25T05:34:40;3.80;;;2.60;;
9657;SDS011;4867;48.112;11.622;2023-04-25T05:37:17;4.07;;;2.63;;
9657;SDS011;4867;48.112;11.622;2023-04-25T05:39:53;4.50;;;2.80;;
9657;SDS011;4867;48.112;11.622;2023-04-25T05:42:33;5.27;;;2.80;;
9657;SDS011;4867;48.112;11.622;2023-04-25T05:45:07;4.40;;;2.50;;
9657;SDS011;4867;48.112;11.622;2023-04-25T05:47:50;4.00;;;2.70;;
9657;SDS011;4867;48.112;11.622;2023-04-25T05:50:37;3.43;;;2.60;;
9657;SDS011;4867;48.112;11.622;2023-04-25T05:53:32;4.10;;;3.03;;
9657;SDS011;4867;48.112;11.622;2023-04-25T05:56:01;4.40;;;2.63;;
9657;SDS011;4867;48.112;11.622;2023-04-25T05:58:29;5.97;;;2.70;;
9657;SDS011;4867;48.112;11.622;2023-04-25T06:00:58;5.70;;;3.17;;
9657;SDS011;4867;48.112;11.622;2023-04-25T06:03:26;4.70;;;2.70;;
9657;SDS011;4867;48.112;11.622;2023-04-25T06:05:57;4.03;;;2.80;;
9657;SDS011;4867;48.112;11.622;2023-04-25T06:08:25;4.23;;;2.80;;
9657;SDS011;4867;48.112;11.622;2023-04-25T06:10:52;4.93;;;2.87;;
9657;SDS011;4867;48.112;11.622;2023-04-25T06:13:20;2.63;;;2.43;;
9657;SDS011;4867;48.112;11.622;2023-04-25T06:15:47;5.63;;;2.70;;
9657;SDS011;4867;48.112;11.622;2023-04-25T06:18:14;3.00;;;2.67;;
9657;SDS011;4867;48.112;11.622;2023-04-25T06:20:43;3.80;;;2.83;;
9657;SDS011;4867;48.112;11.622;2023-04-25T06:23:10;4.60;;;2.83;;
9657;SDS011;4867;48.112;11.622;2023-04-25T06:25:56;3.23;;;2.80;;
9657;SDS011;4867;48.112;11.622;2023-04-25T06:28:25;3.70;;;2.97;;
9657;SDS011;4867;48.112;11.622;2023-04-25T06:30:52;4.53;;;3.03;;
9657;SDS011;4867;48.112;11.622;2023-04-25T06:33:20;5.87;;;3.50;;
9657;SDS011;4867;48.112;11.622;2023-04-25T06:35:48;4.13;;;3.27;;
9657;SDS011;4867;48.112;11.622;2023-04-25T06:38:19;6.00;;;3.90;;
9657;SDS011;4867;48.112;11.622;2023-04-25T06:40:50;4.17;;;3.20;;
9657;SDS011;4867;48.112;11.622;2023-04-25T06:43:18;5.03;;;3.57;;
9657;SDS011;4867;48.112;11.622;2023-04-25T06:46:04;4.70;;;3.60;;
9657;SDS011;4867;48.112;11.622;2023-04-25T06:48:38;3.90;;;3.13;;
9657;SDS011;4867;48.112;11.622;2023-04-25T06:51:06;3.10;;;2.87;;
9657;SDS011;4867;48.112;11.622;2023-04-25T06:53:35;3.53;;;3.20;;
9657;SDS011;4867;48.112;11.622;2023-04-25T06:56:06;5.23;;;3.37;;
9657;SDS011;4867;48.112;11.622;2023-04-25T06:58:47;4.90;;;3.50;;
9657;SDS011;4867;48.112;11.622;2023-04-25T07:01:29;5.00;;;4.23;;
9657;SDS011;4867;48.112;11.622;2023-04-25T07:03:58;5.03;;;4.20;;
9657;SDS011;4867;48.112;11.622;2023-04-25T07:06:28;5.70;;;3.67;;
9657;SDS011;4867;48.112;11.622;2023-04-25T07:08:55;4.83;;;3.20;;
9657;SDS011;4867;48.112;11.622;2023-04-25T07:11:23;4.90;;;3.43;;
9657;SDS011;4867;48.112;11.622;2023-04-25T07:13:51;6.07;;;3.40;;
9657;SDS011;4867;48.112;11.622;2023-04-25T07:16:18;4.50;;;3.93;;
9657;SDS011;4867;48.112;11.622;2023-04-25T07:18:46;4.60;;;3.73;;
9657;SDS011;4867;48.112;11.622;2023-04-25T07:21:14;5.17;;;3.60;;
9657;SDS011;4867;48.112;11.622;2023-04-25T07:23:43;6.80;;;3.40;;
9657;SDS011;4867;48.112;11.622;2023-04-25T07:26:15;3.90;;;3.30;;
9657;SDS011;4867;48.112;11.622;2023-04-25T07:29:02;4.17;;;3.30;;
9657;SDS011;4867;48.112;11.622;2023-04-25T07:31:29;5.90;;;3.27;;
9657;SDS011;4867;48.112;11.622;2023-04-25T07:33:57;3.10;;;2.60;;
9657;SDS011;4867;48.112;11.622;2023-04-25T07:36:27;4.63;;;2.97;;
9657;SDS011;4867;48.112;11.622;2023-04-25T07:38:55;4.13;;;2.97;;
9657;SDS011;4867;48.112;11.622;2023-04-25T07:41:22;5.03;;;3.37;;
9657;SDS011;4867;48.112;11.622;2023-04-25T07:43:50;5.70;;;3.33;;
9657;SDS011;4867;48.112;11.622;2023-04-25T07:46:18;5.50;;;2.97;;
9657;SDS011;4867;48.112;11.622;2023-04-25T07:48:46;4.50;;;3.27;;
9657;SDS011;4867;48.112;11.622;2023-04-25T07:51:15;6.20;;;3.70;;
9657;SDS011;4867;48.112;11.622;2023-04-25T07:53:42;4.27;;;3.53;;
9657;SDS011;4867;48.112;11.622;2023-04-25T07:56:13;6.50;;;3.37;;
9657;SDS011;4867;48.112;11.622;2023-04-25T07:58:43;5.30;;;3.10;;
9657;SDS011;4867;48.112;11.622;2023-04-25T08:01:13;5.13;;;3.77;;
9657;SDS011;4867;48.112;11.622;2023-04-25T08:03:57;6.70;;;3.60;;
9657;SDS011;4867;48.112;11.622;2023-04-25T08:06:47;4.57;;;3.10;;
9657;SDS011;4867;48.112;11.622;2023-04-25T08:09:20;3.77;;;3.30;;
9657;SDS011;4867;48.112;11.622;2023-04-25T08:11:48;4.03;;;3.40;;
9657;SDS011;4867;48.112;11.622;2023-04-25T08:14:19;3.93;;;3.20;;
9657;SDS011;4867;48.112;11.622;2023-04-25T08:16:48;6.07;;;3.30;;
9657;SDS011;4867;48.112;11.622;2023-04-25T08:19:15;5.10;;;3.77;;
9657;SDS011;4867;48.112;11.622;2023-04-25T08:21:44;4.73;;;3.23;;
9657;SDS011;4867;48.112;11.622;2023-04-25T08:24:16;3.67;;;3.23;;
9657;SDS011;4867;48.112;11.622;2023-04-25T08:26:43;4.80;;;2.90;;
9657;SDS011;4867;48.112;11.622;2023-04-25T08:29:15;5.60;;;3.10;;
9657;SDS011;4867;48.112;11.622;2023-04-25T08:31:43;4.03;;;2.87;;
9657;SDS011;4867;48.112;11.622;2023-04-25T08:34:12;4.30;;;3.03;;
9657;SDS011;4867;48.112;11.622;2023-04-25T08:36:46;3.50;;;2.80;;
9657;SDS011;4867;48.112;11.622;2023-04-25T08:39:38;4.07;;;3.00;;
9657;SDS011;4867;48.112;11.622;2023-04-25T08:42:26;5.00;;;3.27;;
9657;SDS011;4867;48.112;11.622;2023-04-25T08:44:55;6.47;;;4.10;;
9657;SDS011;4867;48.112;11.622;2023-04-25T08:47:29;6.83;;;3.00;;
9657;SDS011;4867;48.112;11.622;2023-04-25T08:49:59;3.53;;;2.83;;
9657;SDS011;4867;48.112;11.622;2023-04-25T08:52:30;3.10;;;2.80;;
9657;SDS011;4867;48.112;11.622;2023-04-25T08:55:10;5.00;;;2.87;;
9657;SDS011;4867;48.112;11.622;2023-04-25T08:57:43;4.23;;;3.00;;
9657;SDS011;4867;48.112;11.622;2023-04-25T09:00:11;3.47;;;3.07;;
9657;SDS011;4867;48.112;11.622;2023-04-25T09:02:42;6.37;;;3.67;;
9657;SDS011;4867;48.112;11.622;2023-04-25T09:05:12;2.50;;;2.07;;
9657;SDS011;4867;48.112;11.622;2023-04-25T09:07:41;3.10;;;2.80;;
9657;SDS011;4867;48.112;11.622;2023-04-25T09:10:08;3.77;;;2.93;;
9657;SDS011;4867;48.112;11.622;2023-04-25T09:12:38;4.00;;;1.90;;
9657;SDS011;4867;48.112;11.622;2023-04-25T09:15:11;3.77;;;2.10;;
9657;SDS011;4867;48.112;11.622;2023-04-25T09:17:55;3.13;;;2.10;;
9657;SDS011;4867;48.112;11.622;2023-04-25T09:20:27;2.57;;;2.00;;
9657;SDS011;4867;48.112;11.622;2023-04-25T09:23:01;2.50;;;2.10;;
9657;SDS011;4867;48.112;11.622;2023-04-25T09:25:33;3.33;;;2.20;;
9657;SDS011;4867;48.112;11.622;2023-04-25T09:28:07;2.30;;;2.07;;
9657;SDS011;4867;48.112;11.622;2023-04-25T09:30:36;3.87;;;2.30;;
9657;SDS011;4867;48.112;11.622;2023-04-25T09:33:09;2.77;;;1.87;;
9657;SDS011;4867;48.112;11.622;2023-04-25T09:35:42;3.37;;;2.30;;
9657;SDS011;4867;48.112;11.622;2023-04-25T09:38:17;3.10;;;2.20;;
9657;SDS011;4867;48.112;11.622;2023-04-25T09:40:54;2.77;;;2.00;;
9657;SDS011;4867;48.112;11.622;2023-04-25T09:43:34;2.80;;;2.20;;
9657;SDS011;4867;48.112;11.622;2023-04-25T09:46:02;2.70;;;1.97;;
9657;SDS011;4867;48.112;11.622;2023-04-25T09:48:36;4.27;;;2.07;;
9657;SDS011;4867;48.112;11.622;2023-04-25T09:51:08;2.43;;;2.20;;
9657;SDS011;4867;48.112;11.622;2023-04-25T09:53:38;2.27;;;2.00;;
9657;SDS011;4867;48.112;11.622;2023-04-25T09:56:20;5.13;;;2.00;;
9657;SDS011;4867;48.112;11.622;2023-04-25T09:58:49;5.73;;;2.33;;
9657;SDS011;4867;48.112;11.622;2023-04-25T10:01:20;3.23;;;2.23;;
9657;SDS011;4867;48.112;11.622;2023-04-25T10:04:04;3.40;;;2.00;;
9657;SDS011;4867;48.112;11.622;2023-04-25T10:06:45;2.70;;;2.10;;
9657;SDS011;4867;48.112;11.622;2023-04-25T10:09:17;3.10;;;2.23;;
9657;SDS011;4867;48.112;11.622;2023-04-25T10:11:47;2.43;;;2.07;;
9657;SDS011;4867;48.112;11.622;2023-04-25T10:14:15;2.40;;;2.07;;
9657;SDS011;4867;48.112;11.622;2023-04-25T10:16:43;2.43;;;2.07;;
9657;SDS011;4867;48.112;11.622;2023-04-25T10:19:11;2.93;;;1.93;;
9657;SDS011;4867;48.112;11.622;2023-04-25T10:21:41;2.93;;;2.13;;
9657;SDS011;4867;48.112;11.622;2023-04-25T10:24:32;2.23;;;2.03;;
9657;SDS011;4867;48.112;11.622;2023-04-25T10:27:01;3.60;;;2.07;;
9657;SDS011;4867;48.112;11.622;2023-04-25T10:29:29;2.80;;;2.37;;
9657;SDS011;4867;48.112;11.622;2023-04-25T10:31:57;5.60;;;2.27;;
9657;SDS011;4867;48.112;11.622;2023-04-25T10:34:32;3.10;;;2.10;;
9657;SDS011;4867;48.112;11.622;2023-04-25T10:37:08;2.57;;;2.10;;
9657;SDS011;4867;48.112;11.622;2023-04-25T10:39:38;2.37;;;2.00;;
9657;SDS011;4867;48.112;11.622;2023-04-25T10:42:07;5.57;;;2.40;;
9657;SDS011;4867;48.112;11.622;2023-04-25T10:44:36;3.77;;;2.33;;
9657;SDS011;4867;48.112;11.622;2023-04-25T10:47:06;3.83;;;2.30;;
9657;SDS011;4867;48.112;11.622;2023-04-25T10:49:36;4.70;;;2.13;;
9657;SDS011;4867;48.112;11.622;2023-04-25T10:54:52;2.33;;;2.00;;
9657;SDS011;4867;48.112;11.622;2023-04-25T10:57:31;2.03;;;1.83;;
9657;SDS011;4867;48.112;11.622;2023-04-25T11:00:14;2.70;;;2.00;;
9657;SDS011;4867;48.112;11.622;2023-04-25T11:02:51;3.50;;;1.87;;
9657;SDS011;4867;48.112;11.622;2023-04-25T11:05:32;2.50;;;1.90;;
9657;SDS011;4867;48.112;11.622;2023-04-25T11:08:13;2.07;;;1.87;;
9657;SDS011;4867;48.112;11.622;2023-04-25T11:10:45;5.50;;;2.30;;
9657;SDS011;4867;48.112;11.622;2023-04-25T11:13:15;3.03;;;2.37;;
9657;SDS011;4867;48.112;11.622;2023-04-25T11:15:43;4.10;;;2.27;;
9657;SDS011;4867;48.112;11.622;2023-04-25T11:18:15;3.27;;;2.13;;
9657;SDS011;4867;48.112;11.622;2023-04-25T11:20:43;3.47;;;2.40;;
9657;SDS011;4867;48.112;11.622;2023-04-25T11:23:10;2.40;;;2.20;;
9657;SDS011;4867;48.112;11.622;2023-04-25T11:25:38;2.10;;;1.87;;
9657;SDS011;4867;48.112;11.622;2023-04-25T11:28:05;2.20;;;2.00;;
9657;SDS011;4867;48.112;11.622;2023-04-25T11:30:32;2.90;;;2.27;;
9657;SDS011;4867;48.112;11.622;2023-04-25T11:33:00;2.77;;;2.57;;
9657;SDS011;4867;48.112;11.622;2023-04-25T11:35:29;3.83;;;2.00;;
9657;SDS011;4867;48.112;11.622;2023-04-25T11:37:57;2.13;;;1.93;;
9657;SDS011;4867;48.112;11.622;2023-04-25T11:40:24;2.87;;;2.20;;
9657;SDS011;4867;48.112;11.622;2023-04-25T11:42:51;3.30;;;2.37;;
9657;SDS011;4867;48.112;11.622;2023-04-25T11:45:38;3.30;;;2.40;;
9657;SDS011;4867;48.112;11.622;2023-04-25T11:48:06;2.37;;;2.13;;
9657;SDS011;4867;48.112;11.622;2023-04-25T11:50:33;2.20;;;1.80;;
9657;SDS011;4867;48.112;11.622;2023-04-25T11:53:00;3.50;;;2.47;;
9657;SDS011;4867;48.112;11.622;2023-04-25T11:55:27;2.63;;;2.20;;
9657;SDS011;4867;48.112;11.622;2023-04-25T11:57:59;3.00;;;2.70;;
9657;SDS011;4867;48.112;11.622;2023-04-25T12:00:27;4.53;;;3.00;;
9657;SDS011;4867;48.112;11.622;2023-04-25T12:02:55;2.83;;;2.20;;
9657;SDS011;4867;48.112;11.622;2023-04-25T12:05:30;2.90;;;2.00;;
9657;SDS011;4867;48.112;11.622;2023-04-25T12:08:13;3.30;;;1.70;;
9657;SDS011;4867;48.112;11.622;2023-04-25T12:10:42;1.67;;;1.57;;
9657;SDS011;4867;48.112;11.622;2023-04-25T12:13:45;2.00;;;1.80;;
9657;SDS011;4867;48.112;11.622;2023-04-25T12:16:05;1.77;;;1.60;;
9657;SDS011;4867;48.112;11.622;2023-04-25T12:18:32;2.27;;;1.90;;
9657;SDS011;4867;48.112;11.622;2023-04-25T12:21:03;1.90;;;1.77;;
9657;SDS011;4867;48.112;11.622;2023-04-25T12:23:31;2.37;;;1.90;;
9657;SDS011;4867;48.112;11.622;2023-04-25T12:25:58;3.40;;;1.90;;
9657;SDS011;4867;48.112;11.622;2023-04-25T12:28:26;3.27;;;1.60;;
9657;SDS011;4867;48.112;11.622;2023-04-25T12:31:05;2.00;;;1.80;;
9657;SDS011;4867;48.112;11.622;2023-04-25T12:33:34;2.43;;;2.23;;
9657;SDS011;4867;48.112;11.622;2023-04-25T12:36:03;1.77;;;1.53;;
9657;SDS011;4867;48.112;11.622;2023-04-25T12:38:36;2.30;;;2.10;;
9657;SDS011;4867;48.112;11.622;2023-04-25T12:41:07;1.90;;;1.80;;
9657;SDS011;4867;48.112;11.622;2023-04-25T12:43:35;1.80;;;1.70;;
9657;SDS011;4867;48.112;11.622;2023-04-25T12:46:02;2.50;;;1.40;;
9657;SDS011;4867;48.112;11.622;2023-04-25T12:48:30;2.17;;;1.50;;
9657;SDS011;4867;48.112;11.622;2023-04-25T12:50:57;2.07;;;1.80;;
9657;SDS011;4867;48.112;11.622;2023-04-25T12:53:25;3.00;;;2.30;;
9657;SDS011;4867;48.112;11.622;2023-04-25T12:55:53;3.43;;;1.73;;
9657;SDS011;4867;48.112;11.622;2023-04-25T12:58:21;2.57;;;1.50;;
9657;SDS011;4867;48.112;11.622;2023-04-25T13:00:48;1.83;;;1.57;;
9657;SDS011;4867;48.112;11.622;2023-04-25T13:03:16;1.50;;;1.40;;
9657;SDS011;4867;48.112;11.622;2023-04-25T13:05:43;1.67;;;1.50;;
9657;SDS011;4867;48.112;11.622;2023-04-25T13:08:11;1.60;;;1.50;;
9657;SDS011;4867;48.112;11.622;2023-04-25T13:10:38;1.70;;;1.57;;
9657;SDS011;4867;48.112;11.622;2023-04-25T13:13:06;2.50;;;1.47;;
9657;SDS011;4867;48.112;11.622;2023-04-25T13:15:33;1.67;;;1.10;;
9657;SDS011;4867;48.112;11.622;2023-04-25T13:18:00;2.23;;;1.50;;
9657;SDS011;4867;48.112;11.622;2023-04-25T13:20:28;1.73;;;1.40;;
9657;SDS011;4867;48.112;11.622;2023-04-25T13:22:55;1.50;;;1.33;;
9657;SDS011;4867;48.112;11.622;2023-04-25T13:25:25;1.57;;;1.43;;
9657;SDS011;4867;48.112;11.622;2023-04-25T13:27:53;1.93;;;1.40;;
9657;SDS011;4867;48.112;11.622;2023-04-25T13:30:20;1.97;;;1.70;;
9657;SDS011;4867;48.112;11.622;2023-04-25T13:32:47;1.77;;;1.43;;
9657;SDS011;4867;48.112;11.622;2023-04-25T13:35:16;2.20;;;1.73;;
9657;SDS011;4867;48.112;11.622;2023-04-25T13:37:44;1.70;;;1.60;;
9657;SDS011;4867;48.112;11.622;2023-04-25T13:40:11;1.53;;;1.43;;
9657;SDS011;4867;48.112;11.622;2023-04-25T13:42:39;1.57;;;1.47;;
9657;SDS011;4867;48.112;11.622;2023-04-25T13:45:07;1.60;;;1.50;;
9657;SDS011;4867;48.112;11.622;2023-04-25T13:47:34;1.60;;;1.50;;
9657;SDS011;4867;48.112;11.622;2023-04-25T13:50:03;2.40;;;1.57;;
9657;SDS011;4867;48.112;11.622;2023-04-25T13:52:32;1.90;;;1.47;;
9657;SDS011;4867;48.112;11.622;2023-04-25T13:54:59;2.50;;;1.70;;
9657;SDS011;4867;48.112;11.622;2023-04-25T13:57:32;2.60;;;1.83;;
9657;SDS011;4867;48.112;11.622;2023-04-25T14:00:01;1.70;;;1.60;;
9657;SDS011;4867;48.112;11.622;2023-04-25T14:02:35;2.10;;;1.60;;
9657;SDS011;4867;48.112;11.622;2023-04-25T14:05:04;1.40;;;1.30;;
9657;SDS011;4867;48.112;11.622;2023-04-25T14:07:33;1.50;;;1.40;;
9657;SDS011;4867;48.112;11.622;2023-04-25T14:10:02;2.23;;;1.47;;
9657;SDS011;4867;48.112;11.622;2023-04-25T14:12:32;1.67;;;1.57;;
9657;SDS011;4867;48.112;11.622;2023-04-25T14:14:59;1.50;;;1.40;;
9657;SDS011;4867;48.112;11.622;2023-04-25T14:17:27;1.50;;;1.40;;
9657;SDS011;4867;48.112;11.622;2023-04-25T14:19:54;1.53;;;1.40;;
9657;SDS011;4867;48.112;11.622;2023-04-25T14:22:21;2.13;;;1.50;;
9657;SDS011;4867;48.112;11.622;2023-04-25T14:24:49;1.83;;;1.50;;
9657;SDS011;4867;48.112;11.622;2023-04-25T14:27:16;1.97;;;1.50;;
9657;SDS011;4867;48.112;11.622;2023-04-25T14:29:43;2.00;;;1.50;;
9657;SDS011;4867;48.112;11.622;2023-04-25T14:32:11;1.30;;;1.20;;
9657;SDS011;4867;48.112;11.622;2023-04-25T14:34:38;1.30;;;1.20;;
9657;SDS011;4867;48.112;11.622;2023-04-25T14:37:07;1.40;;;1.30;;
9657;SDS011;4867;48.112;11.622;2023-04-25T14:39:34;2.30;;;1.60;;
9657;SDS011;4867;48.112;11.622;2023-04-25T14:42:01;1.40;;;1.30;;
9657;SDS011;4867;48.112;11.622;2023-04-25T14:44:28;1.57;;;1.47;;
9657;SDS011;4867;48.112;11.622;2023-04-25T14:46:56;2.13;;;1.50;;
9657;SDS011;4867;48.112;11.622;2023-04-25T14:49:23;1.83;;;1.40;;
9657;SDS011;4867;48.112;11.622;2023-04-25T14:51:51;1.43;;;1.30;;
9657;SDS011;4867;48.112;11.622;2023-04-25T14:54:18;2.00;;;1.70;;
9657;SDS011;4867;48.112;11.622;2023-04-25T14:56:45;2.90;;;1.60;;
9657;SDS011;4867;48.112;11.622;2023-04-25T14:59:13;1.70;;;1.60;;
9657;SDS011;4867;48.112;11.622;2023-04-25T15:01:40;1.73;;;1.63;;
9657;SDS011;4867;48.112;11.622;2023-04-25T15:04:08;1.97;;;1.87;;
9657;SDS011;4867;48.112;11.622;2023-04-25T15:06:35;1.70;;;1.60;;
9657;SDS011;4867;48.112;11.622;2023-04-25T15:09:03;2.77;;;1.70;;
9657;SDS011;4867;48.112;11.622;2023-04-25T15:11:30;2.00;;;1.73;;
9657;SDS011;4867;48.112;11.622;2023-04-25T15:13:57;1.70;;;1.60;;
9657;SDS011;4867;48.112;11.622;2023-04-25T15:16:24;1.70;;;1.60;;
9657;SDS011;4867;48.112;11.622;2023-04-25T15:18:52;1.50;;;1.40;;
9657;SDS011;4867;48.112;11.622;2023-04-25T15:21:19;1.50;;;1.40;;
9657;SDS011;4867;48.112;11.622;2023-04-25T15:23:47;1.40;;;1.30;;
9657;SDS011;4867;48.112;11.622;2023-04-25T15:26:15;1.47;;;1.37;;